Time;durP1;ratioP1;P1;durP2;ratioP2;P2;SDS_P1;SDS_P2;PMS_P1;PMS_P2;Temp;Humidity;BMP_temperature;BMP_pressure;BME280_temperature;BME280_humidity;BME280_pressure;Samples;Min_cycle;Max_cycle;Signal;HPM_P1;HPM_P2
2022/02/23 00:02:22;;;;;;;4.80;1.60;;;;;;;7.46;88.20;100304.16;5004022;28;20487;-76
2022/02/23 00:04:47;;;;;;;4.18;1.65;;;;;;;7.52;86.92;100299.78;5005967;28;20120;-75
2022/02/23 00:07:12;;;;;;;6.63;1.40;;;;;;;7.49;87.53;100308.53;5003079;28;20039;-75
2022/02/23 00:09:37;;;;;;;5.47;1.27;;;;;;;7.57;86.50;100314.72;5005585;28;20037;-75
2022/02/23 00:12:03;;;;;;;5.57;1.30;;;;;;;7.61;86.13;100328.72;5004184;28;20044;-75
2022/02/23 00:14:28;;;;;;;6.93;1.13;;;;;;;7.69;85.17;100337.50;5003811;28;20026;-75
2022/02/23 00:16:54;;;;;;;7.18;1.27;;;;;;;7.67;85.66;100333.97;5004865;28;20048;-75
2022/02/23 00:19:19;;;;;;;8.88;1.83;;;;;;;7.64;85.08;100329.59;4989223;28;20038;-76
2022/02/23 00:21:45;;;;;;;5.95;1.33;;;;;;;7.61;84.22;100354.97;4987189;28;20038;-75
2022/02/23 00:24:10;;;;;;;6.18;1.27;;;;;;;7.67;83.47;100340.09;5004448;28;20042;-75
2022/02/23 00:26:35;;;;;;;7.72;2.13;;;;;;;7.70;82.15;100339.22;5001976;28;20081;-74
2022/02/23 00:29:02;;;;;;;6.40;1.63;;;;;;;7.67;82.63;100366.38;4988716;28;20046;-75
2022/02/23 00:31:28;;;;;;;5.72;1.67;;;;;;;7.73;82.31;100370.78;4985556;28;20150;-75
2022/02/23 00:33:53;;;;;;;6.38;1.83;;;;;;;7.68;82.32;100372.53;5004380;28;20045;-75
2022/02/23 00:36:18;;;;;;;6.18;1.65;;;;;;;7.62;81.72;100383.00;5004856;28;20044;-75
2022/02/23 00:38:44;;;;;;;6.13;1.48;;;;;;;7.61;82.20;100402.25;5002605;28;20422;-74
2022/02/23 00:41:09;;;;;;;6.00;1.35;;;;;;;7.49;82.11;100415.31;5001295;28;20061;-75
2022/02/23 00:43:34;;;;;;;6.75;1.70;;;;;;;7.45;80.69;100419.69;5004517;28;20074;-75
2022/02/23 00:46:00;;;;;;;13.48;2.47;;;;;;;7.32;78.96;100424.00;5004036;28;20042;-74
2022/02/23 00:48:25;;;;;;;7.80;1.60;;;;;;;7.26;76.73;100431.88;5005930;28;20121;-74
2022/02/23 00:50:52;;;;;;;11.35;2.63;;;;;;;7.17;74.26;100443.16;5005580;28;20036;-74
2022/02/23 00:53:17;;;;;;;9.85;2.38;;;;;;;7.08;74.10;100447.50;5002482;28;20038;-75
2022/02/23 00:55:42;;;;;;;19.27;3.15;;;;;;;7.01;73.63;100468.44;5004052;28;20060;-74
2022/02/23 00:58:08;;;;;;;9.85;2.50;;;;;;;6.93;73.38;100485.84;5004305;28;20398;-75
2022/02/23 01:00:33;;;;;;;15.65;2.70;;;;;;;6.81;73.80;100480.50;5000682;28;20117;-74
2022/02/23 01:02:58;;;;;;;18.95;2.63;;;;;;;6.62;74.60;100507.44;5005545;28;20038;-74
2022/02/23 01:05:23;;;;;;;16.45;3.08;;;;;;;6.55;74.49;100494.28;5004710;28;20421;-74
2022/02/23 01:07:49;;;;;;;16.98;3.28;;;;;;;6.45;74.38;100492.44;5003076;28;20461;-74
2022/02/23 01:10:14;;;;;;;17.17;2.88;;;;;;;6.40;75.00;100496.75;5010753;28;20462;-74
2022/02/23 01:12:40;;;;;;;12.73;3.25;;;;;;;6.30;74.88;100506.25;5003771;28;20058;-74
2022/02/23 01:15:06;;;;;;;20.13;3.28;;;;;;;6.31;74.55;100515.91;4987341;28;20504;-74
2022/02/23 01:17:32;;;;;;;15.88;2.50;;;;;;;6.23;75.52;100521.88;5002433;28;20026;-74
2022/02/23 01:19:58;;;;;;;18.77;3.25;;;;;;;6.23;75.35;100529.75;5004829;28;20057;-74
2022/02/23 01:22:24;;;;;;;13.32;2.70;;;;;;;6.19;75.97;100549.81;5003192;28;20073;-74
2022/02/23 01:24:49;;;;;;;16.63;2.28;;;;;;;6.12;75.53;100530.50;5004721;28;20073;-74
2022/02/23 01:27:14;;;;;;;12.25;3.38;;;;;;;6.15;75.62;100543.63;5002409;28;20038;-74
2022/02/23 01:29:39;;;;;;;13.68;2.55;;;;;;;6.11;75.95;100526.13;4985856;28;20551;-74
2022/02/23 01:32:05;;;;;;;21.52;3.35;;;;;;;6.07;74.77;100532.19;5003618;28;20510;-73
2022/02/23 01:34:30;;;;;;;12.60;2.70;;;;;;;6.11;74.46;100551.47;5000287;28;20529;-74
2022/02/23 01:36:56;;;;;;;15.43;3.25;;;;;;;6.08;74.07;100559.28;5004215;28;20041;-74
2022/02/23 01:39:21;;;;;;;19.67;4.18;;;;;;;6.08;73.50;100573.28;5002538;28;20034;-73
2022/02/23 01:41:46;;;;;;;15.93;2.90;;;;;;;6.05;73.41;100574.94;5002249;28;20029;-74
2022/02/23 01:44:12;;;;;;;13.73;2.33;;;;;;;6.01;73.01;100592.38;5003707;28;20033;-74
2022/02/23 01:46:37;;;;;;;16.17;3.42;;;;;;;6.05;72.30;100603.78;5001411;28;20030;-74
2022/02/23 01:49:03;;;;;;;14.38;2.47;;;;;;;6.00;72.79;100598.50;5006738;28;20061;-73
2022/02/23 01:51:30;;;;;;;15.00;2.63;;;;;;;6.03;72.81;100608.13;4985225;28;20499;-73
2022/02/23 01:53:55;;;;;;;14.02;2.80;;;;;;;6.04;73.34;100594.16;4977231;28;20120;-74
2022/02/23 01:56:20;;;;;;;10.40;2.65;;;;;;;6.02;74.58;100602.00;4999763;28;20541;-74
2022/02/23 01:58:46;;;;;;;20.02;3.17;;;;;;;6.01;74.53;100636.03;5007400;28;20038;-73
2022/02/23 02:01:12;;;;;;;15.45;2.65;;;;;;;5.93;75.47;100620.19;5002749;28;20042;-73
2022/02/23 02:03:37;;;;;;;13.25;2.40;;;;;;;5.86;75.24;100621.81;5002875;28;20053;-74
2022/02/23 02:06:03;;;;;;;17.15;2.60;;;;;;;5.71;76.02;100626.81;5001104;28;20053;-74
2022/02/23 02:08:28;;;;;;;16.45;2.85;;;;;;;5.76;75.81;100624.28;5003767;28;20068;-74
2022/02/23 02:10:53;;;;;;;14.43;2.53;;;;;;;5.66;75.72;100637.25;5001286;28;20026;-74
2022/02/23 02:13:19;;;;;;;12.02;2.10;;;;;;;5.65;75.36;100645.94;5002307;28;20493;-74
2022/02/23 02:15:44;;;;;;;15.30;2.78;;;;;;;5.60;75.14;100631.91;4985989;28;20073;-73
2022/02/23 02:18:10;;;;;;;21.05;2.95;;;;;;;5.63;75.56;100637.22;5003699;28;20083;-74
2022/02/23 02:20:35;;;;;;;27.15;3.65;;;;;;;5.61;75.78;100653.75;5003540;28;20038;-74
2022/02/23 02:23:01;;;;;;;13.65;3.05;;;;;;;5.63;75.69;100655.53;5000325;28;20486;-74
2022/02/23 02:25:26;;;;;;;12.45;2.47;;;;;;;5.60;75.72;100665.06;5001971;28;20049;-73
2022/02/23 02:27:51;;;;;;;15.35;2.90;;;;;;;5.54;76.26;100655.38;5002987;28;20033;-75
2022/02/23 02:30:17;;;;;;;15.20;3.10;;;;;;;5.61;75.97;100664.22;5000532;28;20030;-74
2022/02/23 02:32:42;;;;;;;19.77;3.10;;;;;;;5.48;76.56;100692.81;5001614;28;20544;-74
2022/02/23 02:35:08;;;;;;;11.93;2.30;;;;;;;5.52;76.33;100678.03;5001604;28;20042;-74
2022/02/23 02:37:33;;;;;;;10.75;2.53;;;;;;;5.54;76.39;100696.41;5002562;28;20173;-74
2022/02/23 02:39:58;;;;;;;15.48;3.58;;;;;;;5.48;76.33;100681.47;4987320;28;20052;-73
2022/02/23 02:42:24;;;;;;;14.20;2.60;;;;;;;5.44;77.04;100692.72;4992253;28;20041;-74
2022/02/23 02:44:49;;;;;;;12.77;2.80;;;;;;;5.44;77.17;100697.97;5000881;28;20053;-74
2022/02/23 02:47:15;;;;;;;16.83;2.63;;;;;;;5.36;77.19;100712.66;5001741;28;20088;-73
2022/02/23 02:49:41;;;;;;;15.48;2.42;;;;;;;5.36;77.37;100720.50;5002737;28;20052;-74
2022/02/23 02:52:06;;;;;;;15.63;2.58;;;;;;;5.38;76.96;100710.94;5004603;28;20042;-74
2022/02/23 02:54:33;;;;;;;13.55;2.25;;;;;;;5.36;76.79;100724.00;5003242;28;20409;-74
2022/02/23 02:56:59;;;;;;;18.08;2.55;;;;;;;5.34;77.06;100719.59;5001398;28;20113;-74
2022/02/23 02:59:25;;;;;;;17.55;2.72;;;;;;;5.28;76.93;100715.13;5002924;28;20045;-73
2022/02/23 03:01:50;;;;;;;19.23;2.95;;;;;;;5.25;77.33;100731.66;4991432;28;20080;-74
2022/02/23 03:04:16;;;;;;;16.58;3.22;;;;;;;5.38;76.63;100738.00;5000470;28;20042;-74
2022/02/23 03:06:41;;;;;;;12.18;2.15;;;;;;;5.53;76.95;100752.22;5002971;28;20088;-73
2022/02/23 03:09:07;;;;;;;13.30;2.40;;;;;;;5.63;76.56;100744.56;5001757;28;20042;-74
2022/02/23 03:11:33;;;;;;;12.35;2.42;;;;;;;5.78;75.36;100759.63;4982760;28;20455;-74
2022/02/23 03:13:59;;;;;;;16.88;2.40;;;;;;;5.80;75.44;100757.06;5002941;28;20042;-73
2022/02/23 03:16:25;;;;;;;16.27;2.75;;;;;;;5.86;75.04;100767.63;4983639;28;20034;-74
2022/02/23 03:18:50;;;;;;;12.85;2.90;;;;;;;5.90;74.93;100772.94;4983961;28;20038;-74
2022/02/23 03:21:15;;;;;;;16.77;2.58;;;;;;;5.91;75.05;100755.50;4982701;28;20477;-73
2022/02/23 03:23:41;;;;;;;12.73;2.30;;;;;;;5.91;74.79;100771.22;5002446;28;20042;-74
2022/02/23 03:26:11;;;;;;;10.60;2.38;;;;;;;5.91;74.93;100761.59;4999779;28;20077;-74
2022/02/23 03:28:37;;;;;;;9.27;1.98;;;;;;;5.87;75.23;100774.66;5001351;28;20037;-74
2022/02/23 03:31:03;;;;;;;11.05;2.13;;;;;;;5.91;74.08;100786.94;5002129;28;20105;-74
2022/02/23 03:33:29;;;;;;;15.15;2.28;;;;;;;5.86;74.84;100778.09;5001228;28;20100;-74
2022/02/23 03:35:54;;;;;;;15.55;2.30;;;;;;;5.80;74.96;100778.88;4975376;28;20128;-73
2022/02/23 03:38:20;;;;;;;15.90;2.42;;;;;;;5.68;75.29;100782.16;5005095;28;20123;-73
2022/02/23 03:40:45;;;;;;;11.85;2.28;;;;;;;5.71;75.15;100774.38;5004507;28;20057;-74
2022/02/23 03:43:12;;;;;;;14.35;2.63;;;;;;;5.66;75.83;100794.38;4996721;28;20441;-73
2022/02/23 03:45:38;;;;;;;11.65;2.05;;;;;;;5.70;75.25;100793.56;4992928;28;20038;-74
2022/02/23 03:48:04;;;;;;;15.52;2.42;;;;;;;5.60;75.37;100803.84;5004611;28;20053;-74
2022/02/23 03:50:29;;;;;;;11.80;3.42;;;;;;;5.55;75.62;100814.22;5007894;28;20038;-74
2022/02/23 03:52:54;;;;;;;12.43;2.28;;;;;;;5.50;75.71;100808.00;5005789;28;20038;-74
2022/02/23 03:55:20;;;;;;;11.27;1.95;;;;;;;5.37;76.01;100813.88;5003327;28;20049;-74
2022/02/23 03:57:46;;;;;;;12.57;2.22;;;;;;;5.39;76.10;100820.91;5009220;28;20061;-74
2022/02/23 04:00:14;;;;;;;15.48;2.70;;;;;;;5.36;76.44;100819.97;5004753;28;20050;-74
2022/02/23 04:02:40;;;;;;;13.68;2.78;;;;;;;5.34;76.08;100839.97;5001965;28;20521;-73
2022/02/23 04:05:06;;;;;;;17.35;2.47;;;;;;;5.25;76.23;100828.47;5006969;28;20041;-73
2022/02/23 04:07:32;;;;;;;14.70;2.25;;;;;;;5.16;77.33;100844.00;5005367;28;20064;-74
2022/02/23 04:09:57;;;;;;;11.80;1.85;;;;;;;5.08;77.23;100853.41;5004021;28;20034;-74
2022/02/23 04:12:24;;;;;;;12.30;2.40;;;;;;;5.00;77.49;100839.28;5004865;28;20041;-73
2022/02/23 04:14:49;;;;;;;16.48;3.33;;;;;;;4.99;77.68;100842.75;5003034;28;20109;-74
2022/02/23 04:17:15;;;;;;;15.75;2.45;;;;;;;4.95;77.97;100849.66;4987988;28;20041;-74
2022/02/23 04:19:40;;;;;;;16.00;2.33;;;;;;;4.88;77.96;100857.34;4992975;28;20034;-74
2022/02/23 04:22:06;;;;;;;17.38;2.88;;;;;;;4.95;77.55;100862.75;5006311;28;20030;-74
2022/02/23 04:24:32;;;;;;;18.42;3.40;;;;;;;4.89;77.37;100852.13;5002970;28;20042;-73
2022/02/23 04:26:59;;;;;;;19.70;4.60;;;;;;;4.84;77.75;100859.88;5005779;28;20409;-73
2022/02/23 04:29:24;;;;;;;15.77;3.55;;;;;;;4.82;78.11;100871.13;5003775;28;20049;-74
2022/02/23 04:31:49;;;;;;;24.52;4.13;;;;;;;4.76;77.81;100874.50;4985951;28;20558;-75
2022/02/23 04:34:15;;;;;;;11.73;2.53;;;;;;;4.79;77.78;100874.59;5005132;28;20084;-75
2022/02/23 04:36:40;;;;;;;15.98;2.65;;;;;;;4.81;77.65;100870.25;5005965;28;20026;-76
2022/02/23 04:39:08;;;;;;;18.67;2.97;;;;;;;4.89;77.14;100891.34;5003195;28;20030;-76
2022/02/23 04:41:33;;;;;;;13.07;2.28;;;;;;;4.99;76.83;100888.09;5003607;28;20144;-76
2022/02/23 04:43:59;;;;;;;14.52;2.00;;;;;;;5.22;75.87;100896.47;4995615;28;20048;-76
2022/02/23 04:46:24;;;;;;;10.13;2.70;;;;;;;5.33;75.68;100914.13;5001560;28;20049;-75
2022/02/23 04:48:50;;;;;;;15.10;2.95;;;;;;;5.46;74.67;100909.19;5004638;28;20509;-76
2022/02/23 04:51:16;;;;;;;11.57;2.45;;;;;;;5.50;74.74;100920.59;5006376;28;20041;-75
2022/02/23 04:53:42;;;;;;;14.00;2.95;;;;;;;5.56;74.38;100918.09;5005185;28;20058;-76
2022/02/23 04:56:08;;;;;;;13.27;2.40;;;;;;;5.51;74.73;100913.63;4996075;28;20080;-75
2022/02/23 04:58:33;;;;;;;12.32;1.85;;;;;;;5.56;74.05;100940.81;5005533;28;20060;-76
2022/02/23 05:00:58;;;;;;;11.90;2.00;;;;;;;5.54;74.00;100930.28;5015726;28;20060;-76
2022/02/23 05:03:23;;;;;;;13.85;2.60;;;;;;;5.60;73.66;100951.34;5002722;28;20069;-75
2022/02/23 05:05:50;;;;;;;14.15;2.22;;;;;;;5.63;73.51;100955.75;5006149;28;20124;-75
2022/02/23 05:08:17;;;;;;;14.52;2.05;;;;;;;5.69;73.00;100954.16;5010042;28;20519;-75
2022/02/23 05:10:43;;;;;;;15.82;2.40;;;;;;;5.68;72.68;100956.75;4995612;28;20046;-75
2022/02/23 05:13:09;;;;;;;14.23;2.30;;;;;;;5.75;72.87;100958.63;5004304;28;20092;-75
2022/02/23 05:15:34;;;;;;;11.27;2.50;;;;;;;5.67;72.72;100976.81;4995551;28;20045;-75
2022/02/23 05:18:00;;;;;;;18.85;2.70;;;;;;;5.72;72.51;100971.69;5001713;28;20077;-75
2022/02/23 05:20:27;;;;;;;14.93;3.33;;;;;;;5.78;72.26;100984.00;5004096;28;20461;-75
2022/02/23 05:22:52;;;;;;;16.05;2.38;;;;;;;5.75;73.02;100981.34;5003097;28;20038;-75
2022/02/23 05:25:18;;;;;;;12.82;2.72;;;;;;;5.75;72.54;101003.16;5003826;28;20086;-75
2022/02/23 05:27:44;;;;;;;8.65;1.85;;;;;;;5.86;72.46;100995.53;5001512;28;20113;-75
2022/02/23 05:30:10;;;;;;;15.02;2.75;;;;;;;5.94;71.47;100996.59;5003846;28;20030;-75
2022/02/23 05:32:37;;;;;;;13.80;2.47;;;;;;;6.07;70.87;101001.22;4995113;28;20049;-75
2022/02/23 05:35:03;;;;;;;11.55;2.50;;;;;;;6.17;71.14;101009.28;4984954;28;20049;-75
2022/02/23 05:37:29;;;;;;;13.25;2.08;;;;;;;6.15;70.57;101024.97;5004542;28;20025;-75
2022/02/23 05:39:54;;;;;;;16.80;2.53;;;;;;;6.16;70.53;101016.25;5004765;28;20394;-75
2022/02/23 05:42:19;;;;;;;12.48;2.22;;;;;;;6.26;70.92;101014.69;5007755;28;20064;-75
2022/02/23 05:44:45;;;;;;;20.00;4.65;;;;;;;6.25;70.62;101028.66;5003448;28;20034;-76
2022/02/23 05:47:10;;;;;;;15.50;2.45;;;;;;;6.21;69.91;101034.69;5006193;28;20116;-76
2022/02/23 05:49:35;;;;;;;10.88;1.95;;;;;;;6.27;70.11;101032.19;4993647;28;20034;-76
2022/02/23 05:52:01;;;;;;;18.10;2.50;;;;;;;6.31;70.17;101040.16;5004643;28;20084;-75
2022/02/23 05:54:26;;;;;;;10.32;1.75;;;;;;;6.30;70.57;101048.84;5008235;28;20034;-76
2022/02/23 05:56:54;;;;;;;15.02;3.28;;;;;;;6.31;69.93;101047.09;5005405;28;20045;-75
2022/02/23 05:59:19;;;;;;;14.10;3.10;;;;;;;6.31;70.63;101052.34;5007143;28;20449;-75
2022/02/23 06:01:45;;;;;;;16.30;2.30;;;;;;;6.39;70.13;101058.63;5010176;28;20026;-75
2022/02/23 06:04:10;;;;;;;17.55;3.03;;;;;;;6.44;69.82;101071.84;5008236;28;20516;-75
2022/02/23 06:06:35;;;;;;;14.55;3.05;;;;;;;6.40;69.75;101070.91;5001646;28;20077;-75
2022/02/23 06:09:01;;;;;;;15.20;2.80;;;;;;;6.42;69.80;101084.94;5003499;28;20046;-75
2022/02/23 06:11:27;;;;;;;17.10;3.30;;;;;;;6.46;69.19;101081.50;5000526;28;20104;-75
2022/02/23 06:13:53;;;;;;;13.57;2.42;;;;;;;6.37;69.82;101081.34;4985877;28;20045;-75
2022/02/23 06:16:23;;;;;;;13.40;3.05;;;;;;;6.40;70.09;101081.38;5002080;28;20045;-75
2022/02/23 06:18:49;;;;;;;15.80;2.70;;;;;;;6.41;69.55;101082.25;4983222;28;20087;-75
2022/02/23 06:21:14;;;;;;;16.70;2.72;;;;;;;6.34;69.97;101092.66;5003299;28;20034;-75
2022/02/23 06:23:40;;;;;;;18.80;2.47;;;;;;;6.34;70.15;101089.09;5001311;28;20038;-75
2022/02/23 06:26:06;;;;;;;13.55;2.55;;;;;;;6.35;70.58;101088.28;4987026;28;20088;-75
2022/02/23 06:28:32;;;;;;;12.23;2.30;;;;;;;6.34;70.75;101094.34;5001424;28;20049;-75
2022/02/23 06:30:58;;;;;;;12.77;2.47;;;;;;;6.28;71.12;101105.59;5007278;28;20038;-75
2022/02/23 06:33:25;;;;;;;20.67;2.95;;;;;;;6.12;71.95;101103.53;5002863;28;20042;-74
2022/02/23 06:35:50;;;;;;;15.40;2.45;;;;;;;6.09;72.65;101106.97;4984852;28;20057;-74
2022/02/23 06:38:16;;;;;;;17.52;3.08;;;;;;;6.09;72.33;101099.09;5002732;28;20041;-74
2022/02/23 06:40:41;;;;;;;16.58;2.40;;;;;;;6.13;72.37;101103.56;5000341;28;20038;-75
2022/02/23 06:43:07;;;;;;;19.15;3.38;;;;;;;6.15;72.04;101117.56;5002793;28;20038;-75
2022/02/23 06:45:34;;;;;;;13.98;2.30;;;;;;;6.24;71.92;101113.41;5002953;28;20030;-75
2022/02/23 06:47:59;;;;;;;17.17;2.80;;;;;;;6.28;72.54;101123.06;5002037;28;20037;-75
2022/02/23 06:50:25;;;;;;;14.35;2.35;;;;;;;6.33;72.34;101124.06;5006802;28;20137;-75
2022/02/23 06:52:52;;;;;;;14.30;3.30;;;;;;;6.26;72.74;101130.03;5003788;28;20081;-75
2022/02/23 06:55:17;;;;;;;15.30;3.13;;;;;;;6.36;72.41;101142.47;5002178;28;20042;-74
2022/02/23 06:57:43;;;;;;;26.15;4.82;;;;;;;6.36;71.80;101163.44;5004292;28;20045;-74
2022/02/23 07:00:10;;;;;;;16.40;3.80;;;;;;;6.39;72.01;101147.78;4993381;28;20046;-75
2022/02/23 07:02:35;;;;;;;24.05;2.88;;;;;;;6.44;71.89;101150.50;4983981;28;20050;-75
2022/02/23 07:05:01;;;;;;;18.58;3.60;;;;;;;6.44;71.37;101151.38;5010763;28;20383;-74
2022/02/23 07:07:27;;;;;;;18.08;3.75;;;;;;;6.48;71.69;101162.84;5004254;28;20525;-75
2022/02/23 07:09:52;;;;;;;18.55;3.15;;;;;;;6.52;70.67;101168.19;5002832;28;20030;-75
2022/02/23 07:12:18;;;;;;;15.18;2.70;;;;;;;6.61;70.44;101174.47;5001604;28;20042;-75
2022/02/23 07:14:43;;;;;;;12.13;2.15;;;;;;;6.60;70.51;101173.53;4989155;28;20041;-75
2022/02/23 07:17:09;;;;;;;13.13;2.70;;;;;;;6.64;70.01;101206.00;5001630;28;20173;-75
2022/02/23 07:19:35;;;;;;;14.98;3.30;;;;;;;6.67;68.76;101198.19;5001954;28;20046;-74
2022/02/23 07:22:00;;;;;;;16.80;3.00;;;;;;;6.68;69.17;101205.19;4999671;28;20057;-75
2022/02/23 07:24:25;;;;;;;13.77;2.47;;;;;;;6.64;69.06;101216.47;5002817;28;20042;-74
2022/02/23 07:26:51;;;;;;;18.55;3.40;;;;;;;6.66;69.18;101230.53;5000409;28;20045;-75
2022/02/23 07:29:16;;;;;;;10.48;2.83;;;;;;;6.68;68.72;101223.53;5000175;28;20034;-75
2022/02/23 07:31:44;;;;;;;15.00;3.28;;;;;;;6.70;68.62;101227.09;5001851;28;20548;-75
2022/02/23 07:34:09;;;;;;;18.17;2.83;;;;;;;6.55;68.60;101228.56;4999654;28;20042;-74
2022/02/23 07:36:34;;;;;;;16.23;2.70;;;;;;;6.54;69.06;101229.38;5005066;28;20040;-75
2022/02/23 07:38:59;;;;;;;16.98;3.35;;;;;;;6.51;68.53;101239.81;5001589;28;20041;-75
2022/02/23 07:41:25;;;;;;;12.77;2.55;;;;;;;6.49;68.25;101235.38;5002177;28;20035;-74
2022/02/23 07:43:52;;;;;;;12.65;2.00;;;;;;;6.61;67.44;101234.78;5002449;28;20517;-74
2022/02/23 07:46:18;;;;;;;12.32;2.42;;;;;;;6.71;66.68;101261.25;5002573;28;20044;-74
2022/02/23 07:48:46;;;;;;;8.38;1.98;;;;;;;6.90;66.10;101246.75;5000788;28;20129;-74
2022/02/23 07:51:12;;;;;;;8.95;2.25;;;;;;;6.97;63.36;101280.16;4982607;28;20049;-75
2022/02/23 07:53:37;;;;;;;16.95;2.20;;;;;;;7.04;64.46;101254.91;5002496;28;20037;-74
2022/02/23 07:56:03;;;;;;;13.25;2.85;;;;;;;7.21;63.81;101258.75;4999690;28;20034;-74
2022/02/23 07:58:28;;;;;;;12.45;2.45;;;;;;;7.20;63.09;101299.00;5006154;28;20036;-75
2022/02/23 08:00:55;;;;;;;10.35;2.50;;;;;;;7.24;63.33;101281.56;5000509;28;20521;-75
2022/02/23 08:03:21;;;;;;;10.98;2.28;;;;;;;7.31;64.57;101296.56;5002143;28;20774;-75
2022/02/23 08:05:47;;;;;;;13.68;2.88;;;;;;;7.28;64.53;101295.63;4999389;28;20046;-74
2022/02/23 08:08:13;;;;;;;8.10;1.77;;;;;;;7.30;64.40;101284.28;5001426;28;20039;-75
2022/02/23 08:10:39;;;;;;;13.15;2.25;;;;;;;7.27;65.12;101289.47;5003485;28;20477;-75
2022/02/23 08:13:05;;;;;;;10.57;2.53;;;;;;;7.22;64.71;101305.13;4999791;28;20088;-74
2022/02/23 08:21:00;;;;;;;13.45;2.30;;;;;;;7.35;65.22;101324.66;5002971;28;20073;-75
2022/02/23 08:23:26;;;;;;;15.32;2.92;;;;;;;7.41;64.71;101314.28;5005778;28;20085;-74
2022/02/23 08:25:51;;;;;;;10.98;2.00;;;;;;;7.43;64.98;101312.53;5008225;28;20057;-74
2022/02/23 08:28:17;;;;;;;15.25;2.22;;;;;;;7.54;64.05;101322.38;5009555;28;20095;-75
2022/02/23 08:30:43;;;;;;;13.93;2.60;;;;;;;7.53;63.14;101339.00;5011222;28;20030;-75
2022/02/23 08:33:08;;;;;;;14.38;2.28;;;;;;;7.60;63.05;101325.13;5010532;28;20029;-75
2022/02/23 08:35:34;;;;;;;10.48;2.10;;;;;;;7.67;62.58;101327.88;5005885;28;20038;-74
2022/02/23 08:37:59;;;;;;;16.67;2.58;;;;;;;7.82;62.31;101329.91;5005641;28;20117;-75
2022/02/23 08:40:26;;;;;;;11.88;2.05;;;;;;;7.84;61.32;101345.72;5005501;28;20513;-75
2022/02/23 08:42:52;;;;;;;13.93;3.25;;;;;;;7.78;60.93;101324.56;5005157;28;20068;-75
2022/02/23 08:45:18;;;;;;;17.35;3.20;;;;;;;7.66;61.76;101347.13;5002319;28;20037;-75
2022/02/23 08:47:43;;;;;;;13.27;2.60;;;;;;;7.66;61.36;101320.00;4990850;28;20034;-74
2022/02/23 08:50:09;;;;;;;12.57;2.35;;;;;;;7.77;61.87;101331.56;5004261;28;20038;-74
2022/02/23 08:52:34;;;;;;;10.40;2.45;;;;;;;7.81;61.55;101335.16;5001215;28;20120;-75
2022/02/23 08:55:00;;;;;;;12.73;2.97;;;;;;;7.92;61.07;101337.97;4988034;28;20038;-75
2022/02/23 08:57:26;;;;;;;12.32;3.08;;;;;;;7.88;61.21;101351.03;5004834;28;20070;-75
2022/02/23 08:59:51;;;;;;;11.27;2.00;;;;;;;7.99;60.86;101342.47;4986671;28;20038;-74
2022/02/23 09:02:16;;;;;;;13.10;3.42;;;;;;;8.05;61.31;101350.47;4986397;28;20030;-75
2022/02/23 09:04:42;;;;;;;14.40;2.58;;;;;;;8.04;59.65;101368.00;5000953;28;20037;-74
2022/02/23 09:07:08;;;;;;;13.85;3.38;;;;;;;7.85;60.63;101361.50;5006619;28;20417;-74
2022/02/23 09:09:34;;;;;;;11.82;2.17;;;;;;;7.88;60.95;101358.91;5005615;28;20042;-74
2022/02/23 09:11:59;;;;;;;14.60;3.35;;;;;;;8.00;60.47;101374.03;5002794;28;20512;-75
2022/02/23 09:14:24;;;;;;;16.20;3.08;;;;;;;8.01;60.92;101361.78;5004495;28;20037;-74
2022/02/23 09:16:50;;;;;;;19.35;3.38;;;;;;;8.04;60.75;101375.88;5001821;28;20034;-74
2022/02/23 09:19:15;;;;;;;10.15;2.08;;;;;;;8.11;60.35;101366.34;5004462;28;20041;-75
2022/02/23 09:21:41;;;;;;;12.98;2.47;;;;;;;8.13;59.31;101394.44;5002781;28;20030;-75
2022/02/23 09:24:07;;;;;;;6.82;1.85;;;;;;;8.00;59.85;101368.78;4986149;28;20209;-75
2022/02/23 09:26:33;;;;;;;12.50;2.80;;;;;;;8.10;59.98;101368.09;5005826;28;20129;-75
2022/02/23 09:28:59;;;;;;;15.60;2.88;;;;;;;8.13;59.42;101385.66;4987210;28;20030;-75
2022/02/23 09:31:25;;;;;;;9.25;2.60;;;;;;;7.98;59.43;101388.00;5001666;28;20097;-75
2022/02/23 09:33:51;;;;;;;15.90;2.90;;;;;;;8.06;59.14;101416.19;5001995;28;20086;-74
2022/02/23 09:36:17;;;;;;;13.65;2.58;;;;;;;8.09;58.77;101391.72;5004098;28;20044;-74
2022/02/23 09:38:44;;;;;;;14.35;2.40;;;;;;;8.21;59.50;101372.66;5007371;28;20048;-75
2022/02/23 09:41:10;;;;;;;13.85;2.95;;;;;;;8.29;57.29;101379.78;5004923;28;20034;-75
2022/02/23 09:43:37;;;;;;;13.20;2.45;;;;;;;8.26;58.19;101377.13;4984580;28;20125;-74
2022/02/23 09:46:05;;;;;;;13.98;2.70;;;;;;;8.31;56.20;101401.75;4994263;28;20034;-74
2022/02/23 09:48:32;;;;;;;10.98;2.17;;;;;;;8.27;56.43;101399.91;5004263;28;20107;-75
2022/02/23 09:50:59;;;;;;;16.23;2.47;;;;;;;8.19;56.28;101387.50;5002141;28;20026;-75
2022/02/23 09:53:25;;;;;;;12.88;2.53;;;;;;;8.31;57.44;101385.09;5003696;28;20060;-75
2022/02/23 09:55:56;;;;;;;11.25;3.15;;;;;;;8.30;57.55;101384.19;5007887;28;20045;-75
2022/02/23 09:58:27;;;;;;;12.52;3.00;;;;;;;8.39;57.67;101380.88;5004870;28;20103;-75
2022/02/23 10:00:54;;;;;;;13.70;2.60;;;;;;;8.60;57.62;101372.44;4986443;28;20045;-75
2022/02/23 10:03:21;;;;;;;14.43;3.58;;;;;;;8.55;57.17;101368.84;5006351;28;20025;-74
2022/02/23 10:05:46;;;;;;;13.73;2.42;;;;;;;8.54;57.33;101390.75;5002982;28;20446;-75
2022/02/23 10:08:14;;;;;;;12.88;3.42;;;;;;;8.60;57.33;101397.88;5002172;28;20045;-74
2022/02/23 10:10:41;;;;;;;12.10;3.08;;;;;;;8.46;56.93;101408.16;5003712;28;20044;-74
2022/02/23 10:13:08;;;;;;;14.25;3.00;;;;;;;8.52;57.91;101396.00;4983530;28;20454;-75
2022/02/23 10:15:42;;;;;;;12.68;2.42;;;;;;;8.54;57.95;101394.28;5001919;28;20045;-75
2022/02/23 10:18:10;;;;;;;16.83;3.00;;;;;;;8.61;57.55;101384.72;5000728;28;20756;-75
2022/02/23 10:20:39;;;;;;;9.75;2.17;;;;;;;8.80;57.53;101388.50;5005793;28;20137;-75
2022/02/23 10:23:20;;;;;;;13.38;2.53;;;;;;;9.10;53.71;101395.09;5005154;28;20034;-75
2022/02/23 10:25:58;;;;;;;11.05;2.22;;;;;;;9.10;53.27;101408.25;5002457;28;20043;-75
2022/02/23 10:28:29;;;;;;;8.27;1.77;;;;;;;8.97;54.04;101387.00;5003415;28;20056;-75
2022/02/23 10:30:56;;;;;;;13.02;2.45;;;;;;;8.97;53.25;101399.31;4984659;28;20092;-76
2022/02/23 10:33:39;;;;;;;9.80;1.70;;;;;;;9.00;52.00;101436.19;5002900;28;20037;-75
2022/02/23 10:36:06;;;;;;;10.65;1.95;;;;;;;8.93;53.74;101416.81;5000565;28;20081;-75
2022/02/23 10:38:41;;;;;;;13.30;2.47;;;;;;;8.83;53.15;101411.38;5003360;28;20533;-75
2022/02/23 10:41:08;;;;;;;10.57;1.77;;;;;;;8.88;54.25;101415.84;5005750;28;20042;-75
2022/02/23 10:43:34;;;;;;;10.82;2.53;;;;;;;9.03;54.53;101411.66;4990646;28;20042;-75
2022/02/23 10:46:07;;;;;;;17.55;5.07;;;;;;;9.15;56.23;101399.56;4985792;28;20040;-75
2022/02/23 10:48:40;;;;;;;13.70;2.53;;;;;;;9.29;54.95;101409.38;5001392;28;20038;-75
2022/02/23 10:51:09;;;;;;;12.32;2.55;;;;;;;9.53;55.22;101414.97;4982566;28;20042;-75
2022/02/23 10:53:35;;;;;;;12.80;2.63;;;;;;;9.63;53.29;101408.06;5002572;28;20116;-75
2022/02/23 10:56:19;;;;;;;12.43;2.10;;;;;;;9.65;53.08;101406.34;5005133;28;20094;-75
2022/02/23 10:58:44;;;;;;;17.40;2.65;;;;;;;9.75;52.19;101433.69;5007497;28;20038;-75
2022/02/23 11:01:10;;;;;;;10.85;2.78;;;;;;;9.73;52.32;101416.97;5005723;28;20524;-76
2022/02/23 11:03:35;;;;;;;12.50;2.83;;;;;;;9.72;52.39;101415.19;5005245;28;20041;-76
2022/02/23 11:06:00;;;;;;;12.02;2.22;;;;;;;9.75;52.42;101412.59;5007810;28;20038;-75
2022/02/23 11:08:26;;;;;;;10.82;1.70;;;;;;;9.80;51.77;101405.63;5007901;28;20042;-75
2022/02/23 11:10:52;;;;;;;9.95;1.67;;;;;;;9.77;52.40;101424.03;5004252;28;20038;-75
2022/02/23 11:13:19;;;;;;;13.43;2.20;;;;;;;9.92;51.22;101433.88;5003316;28;20121;-74
2022/02/23 11:15:49;;;;;;;11.05;2.20;;;;;;;9.82;52.78;101430.22;5003553;28;20037;-74
2022/02/23 11:18:17;;;;;;;11.77;2.25;;;;;;;9.71;51.21;101421.31;5000936;28;20030;-75
2022/02/23 11:20:44;;;;;;;9.38;2.15;;;;;;;9.60;53.09;101414.19;4999629;28;20054;-76
2022/02/23 11:23:17;;;;;;;10.13;2.33;;;;;;;9.84;51.39;101417.97;4999771;28;20038;-75
2022/02/23 11:25:44;;;;;;;;;;;;;;;9.97;49.68;101430.41;5003208;28;20062;-76
2022/02/23 11:28:16;;;;;;;12.27;2.30;;;;;;;9.93;50.74;101427.72;5003212;28;19918;-75